Time;durP1;ratioP1;P1;durP2;ratioP2;P2;SDS_P1;SDS_P2;PMS_P1;PMS_P2;Temp;Humidity;BMP_temperature;BMP_pressure;BME280_temperature;BME280_humidity;BME280_pressure;Samples;Min_cycle;Max_cycle;Signal;HPM_P1;HPM_P2
2023/11/17 00:13:38;;;;;;;2.50;0.65;;;;;;;;;;5056675;28;20104;-94
2023/11/17 00:16:34;;;;;;;0.20;0.10;;;;;;;;;;5030784;28;20048;-95
2023/11/17 00:40:59;;;;;;;1.08;0.30;;;;;;;;;;4988534;28;20053;-94
2023/11/17 00:43:58;;;;;;;2.45;0.55;;;;;;;;;;4997532;28;20388;-93
2023/11/17 00:46:47;;;;;;;;;;;;;;;;;;;;;
2023/11/17 00:49:26;;;;;;;3.33;1.02;;;;;;;;;;4999139;28;20038;-92
2023/11/17 00:52:13;;;;;;;0.15;0.15;;;;;;;;;;4997748;28;20082;-96
2023/11/17 00:54:49;;;;;;;0.88;0.35;;;;;;;;;;4997079;28;20077;-93
2023/11/17 00:57:31;;;;;;;0.00;0.00;;;;;;;;;;5001164;28;20106;-95
2023/11/17 01:00:06;;;;;;;1.95;0.38;;;;;;;;;;5002701;28;20497;-94
2023/11/17 01:11:52;;;;;;;0.00;0.00;;;;;;;;;;4939018;29;20065;-96
2023/11/17 01:40:08;;;;;;;0.05;0.05;;;;;;;;;;4860175;29;20041;-96
2023/11/17 01:42:52;;;;;;;0.00;0.00;;;;;;;;;;4876048;29;20041;-96
2023/11/17 01:45:37;;;;;;;0.00;0.00;;;;;;;;;;4991833;28;20506;-96
2023/11/17 01:48:21;;;;;;;0.05;0.03;;;;;;;;;;4997040;28;20050;-96
2023/11/17 01:51:16;;;;;;;0.65;0.30;;;;;;;;;;4994438;28;20038;-96
2023/11/17 01:54:01;;;;;;;0.00;0.00;;;;;;;;;;4998550;28;20138;-96
2023/11/17 01:56:35;;;;;;;0.03;0.00;;;;;;;;;;4998590;28;20093;-96
2023/11/17 01:59:29;;;;;;;0.00;0.00;;;;;;;;;;4999623;28;20034;-96
2023/11/17 02:01:58;;;;;;;0.38;0.13;;;;;;;;;;4997307;28;20438;-95
2023/11/17 02:23:04;;;;;;;0.00;0.00;;;;;;;;;;4940731;29;20039;-94
2023/11/17 02:25:59;;;;;;;0.15;0.00;;;;;;;;;;4922235;29;20032;-95
2023/11/17 02:28:44;;;;;;;0.00;0.00;;;;;;;;;;4940422;29;20368;-96
2023/11/17 02:34:04;;;;;;;0.10;0.10;;;;;;;;;;4941403;29;20051;-95
2023/11/17 02:39:55;;;;;;;0.50;0.03;;;;;;;;;;4938781;29;20043;-95
2023/11/17 02:42:56;;;;;;;0.00;0.00;;;;;;;;;;4941967;29;20100;-94
2023/11/17 02:45:31;;;;;;;0.28;0.22;;;;;;;;;;4917596;29;20075;-95
2023/11/17 02:48:22;;;;;;;0.10;0.00;;;;;;;;;;4937223;29;20044;-96
2023/11/17 02:53:51;;;;;;;0.00;0.00;;;;;;;;;;4924894;29;20074;-96
2023/11/17 03:02:53;;;;;;;0.00;0.00;;;;;;;;;;4903140;29;20055;-96
2023/11/17 03:05:39;;;;;;;;;;;;;;;;;;;;;
2023/11/17 03:17:38;;;;;;;0.00;0.00;;;;;;;;;;4847081;29;20049;-96
2023/11/17 03:26:11;;;;;;;0.00;0.00;;;;;;;;;;4936190;29;20038;-95
2023/11/17 03:29:08;;;;;;;0.32;0.10;;;;;;;;;;4919934;29;20051;-96
2023/11/17 03:35:06;;;;;;;1.73;0.88;;;;;;;;;;4935607;29;20106;-95
2023/11/17 03:37:56;;;;;;;0.00;0.00;;;;;;;;;;4959710;28;20035;-96
2023/11/17 04:00:00;;;;;;;0.00;0.00;;;;;;;;;;5012200;28;20050;-95
2023/11/17 04:02:29;;;;;;;0.17;0.05;;;;;;;;;;4997182;28;20041;-93
2023/11/17 04:05:03;;;;;;;0.05;0.05;;;;;;;;;;4996614;28;20038;-93
2023/11/17 04:07:29;;;;;;;0.13;0.08;;;;;;;;;;4997385;28;20184;-96
2023/11/17 04:10:10;;;;;;;1.13;0.45;;;;;;;;;;4996155;28;20136;-96
2023/11/17 04:25:15;;;;;;;0.00;0.00;;;;;;;;;;5037125;28;20168;-93
2023/11/17 04:36:47;;;;;;;;;;;;;;;;;;;;;
2023/11/17 04:57:24;;;;;;;0.00;0.00;;;;;;;;;;5017735;28;20154;-95
2023/11/17 04:59:52;;;;;;;0.20;0.17;;;;;;;;;;4999533;28;20542;-95
2023/11/17 05:02:27;;;;;;;0.00;0.00;;;;;;;;;;4999317;28;20038;-94
2023/11/17 05:05:03;;;;;;;0.00;0.00;;;;;;;;;;4995935;28;20023;-95
2023/11/17 05:07:39;;;;;;;0.00;0.00;;;;;;;;;;4996007;28;20046;-95
2023/11/17 05:10:08;;;;;;;0.00;0.00;;;;;;;;;;4996459;28;20030;-94
2023/11/17 05:12:39;;;;;;;1.58;0.60;;;;;;;;;;4995375;28;20054;-95
2023/11/17 05:15:28;;;;;;;1.17;0.52;;;;;;;;;;4996098;28;20034;-95
2023/11/17 05:17:54;;;;;;;0.00;0.00;;;;;;;;;;4987242;28;20073;-95
2023/11/17 05:20:46;;;;;;;1.55;0.55;;;;;;;;;;4995978;28;20030;-93
2023/11/17 05:23:19;;;;;;;0.57;0.43;;;;;;;;;;4995214;28;20085;-96
2023/11/17 05:25:51;;;;;;;0.52;0.50;;;;;;;;;;4995444;28;20046;-94
2023/11/17 05:28:18;;;;;;;0.73;0.40;;;;;;;;;;4994500;28;20122;-91
2023/11/17 05:30:46;;;;;;;1.33;0.40;;;;;;;;;;4994574;28;20054;-94
2023/11/17 05:33:23;;;;;;;0.55;0.38;;;;;;;;;;4995378;28;20390;-95
2023/11/17 05:35:55;;;;;;;2.38;0.28;;;;;;;;;;4994908;28;20046;-94
2023/11/17 05:38:23;;;;;;;0.73;0.45;;;;;;;;;;4995389;28;20394;-96
2023/11/17 05:40:53;;;;;;;0.82;0.20;;;;;;;;;;4995441;28;20046;-93
2023/11/17 05:43:21;;;;;;;0.17;0.10;;;;;;;;;;4995315;28;20038;-95
2023/11/17 05:45:50;;;;;;;1.95;1.13;;;;;;;;;;4995303;28;20045;-94
2023/11/17 05:48:19;;;;;;;0.20;0.20;;;;;;;;;;4995380;28;20442;-94
2023/11/17 05:51:09;;;;;;;0.22;0.13;;;;;;;;;;4995137;28;20042;-95
2023/11/17 05:53:37;;;;;;;0.00;0.00;;;;;;;;;;4994930;28;20049;-95
2023/11/17 05:59:37;;;;;;;0.00;0.00;;;;;;;;;;4996579;28;20110;-94
2023/11/17 06:02:17;;;;;;;0.35;0.20;;;;;;;;;;4996203;28;20114;-95
2023/11/17 06:04:43;;;;;;;0.00;0.00;;;;;;;;;;4995014;28;20058;-95
2023/11/17 06:07:09;;;;;;;0.10;0.10;;;;;;;;;;5012155;28;20629;-94
2023/11/17 06:09:38;;;;;;;0.00;0.00;;;;;;;;;;4988747;28;20461;-94
2023/11/17 06:12:05;;;;;;;0.30;0.08;;;;;;;;;;4990492;28;20154;-93
2023/11/17 06:14:33;;;;;;;0.20;0.15;;;;;;;;;;4994391;28;20062;-95
2023/11/17 06:17:00;;;;;;;0.30;0.00;;;;;;;;;;4986934;28;20418;-93
2023/11/17 06:19:30;;;;;;;0.10;0.10;;;;;;;;;;4989607;28;20038;-93
2023/11/17 06:21:56;;;;;;;0.93;0.08;;;;;;;;;;4994210;28;20125;-89
2023/11/17 06:24:22;;;;;;;0.28;0.08;;;;;;;;;;4996769;28;20490;-91
2023/11/17 06:26:49;;;;;;;2.20;0.00;;;;;;;;;;4988891;28;20071;-90
2023/11/17 06:29:16;;;;;;;0.00;0.00;;;;;;;;;;4985266;28;20136;-91
2023/11/17 06:31:42;;;;;;;0.38;0.10;;;;;;;;;;4989424;28;20042;-92
2023/11/17 06:34:12;;;;;;;2.95;0.08;;;;;;;;;;4987718;28;20069;-90
2023/11/17 06:36:40;;;;;;;0.20;0.10;;;;;;;;;;4994994;28;20053;-90
2023/11/17 06:39:14;;;;;;;0.25;0.10;;;;;;;;;;4988806;28;20041;-90
2023/11/17 06:41:54;;;;;;;0.17;0.10;;;;;;;;;;5008848;28;20038;-90
2023/11/17 06:44:23;;;;;;;1.27;0.10;;;;;;;;;;4986470;28;20100;-87
2023/11/17 06:46:49;;;;;;;0.00;0.00;;;;;;;;;;4991784;28;20096;-89
2023/11/17 06:49:19;;;;;;;0.00;0.00;;;;;;;;;;4993827;28;20038;-88
2023/11/17 06:51:49;;;;;;;0.75;0.10;;;;;;;;;;4989297;28;20071;-89
2023/11/17 06:54:15;;;;;;;0.52;0.20;;;;;;;;;;4983466;28;20038;-88
2023/11/17 06:56:46;;;;;;;0.80;0.10;;;;;;;;;;4991474;28;20077;-89
2023/11/17 06:59:15;;;;;;;0.10;0.10;;;;;;;;;;4976724;28;20038;-89
2023/11/17 07:01:41;;;;;;;0.25;0.20;;;;;;;;;;4983105;28;20120;-88
2023/11/17 07:04:08;;;;;;;0.00;0.00;;;;;;;;;;4998249;28;20046;-89
2023/11/17 07:06:38;;;;;;;;;;;;;;;;;;4986960;28;20046;-89
2023/11/17 07:09:19;;;;;;;0.95;0.40;;;;;;;;;;4995768;28;20576;-88
2023/11/17 07:12:19;;;;;;;1.05;0.55;;;;;;;;;;4984800;28;20390;-88
2023/11/17 07:15:11;;;;;;;0.45;0.30;;;;;;;;;;4998187;28;20046;-89
2023/11/17 07:17:37;;;;;;;0.57;0.28;;;;;;;;;;4985189;28;20049;-89
2023/11/17 07:20:10;;;;;;;1.13;0.30;;;;;;;;;;4993141;28;20124;-88
2023/11/17 07:22:51;;;;;;;0.63;0.20;;;;;;;;;;4994085;28;20065;-88
2023/11/17 07:25:32;;;;;;;;;;;;;;;;;;;;;
2023/11/17 07:28:00;;;;;;;1.20;0.40;;;;;;;;;;5002825;28;20408;-88
2023/11/17 07:30:34;;;;;;;0.00;0.00;;;;;;;;;;5015231;28;21094;-88
2023/11/17 07:33:05;;;;;;;0.95;0.57;;;;;;;;;;5009081;28;20038;-89
2023/11/17 07:35:31;;;;;;;0.00;0.00;;;;;;;;;;5024067;28;20045;-89
2023/11/17 07:37:57;;;;;;;1.90;0.45;;;;;;;;;;5025986;28;20045;-89
2023/11/17 07:40:23;;;;;;;1.35;0.50;;;;;;;;;;5027222;28;20100;-88
2023/11/17 07:42:49;;;;;;;0.20;0.10;;;;;;;;;;5001732;28;20077;-89
2023/11/17 07:45:17;;;;;;;3.10;0.75;;;;;;;;;;5015496;28;20048;-89
2023/11/17 07:47:43;;;;;;;1.80;0.65;;;;;;;;;;5001670;28;20537;-89
2023/11/17 07:50:13;;;;;;;0.82;0.10;;;;;;;;;;5007495;28;20038;-89
2023/11/17 07:52:43;;;;;;;0.00;0.00;;;;;;;;;;5016665;28;20044;-89
2023/11/17 07:55:09;;;;;;;0.30;0.03;;;;;;;;;;5006977;28;20117;-89
2023/11/17 07:57:35;;;;;;;0.25;0.10;;;;;;;;;;5005043;28;20044;-89
2023/11/17 08:00:05;;;;;;;1.25;0.60;;;;;;;;;;5022083;28;20026;-89
2023/11/17 08:02:31;;;;;;;2.55;0.68;;;;;;;;;;5009080;28;20050;-90
2023/11/17 08:04:57;;;;;;;0.22;0.20;;;;;;;;;;5013238;28;20042;-89
2023/11/17 08:07:25;;;;;;;0.15;0.00;;;;;;;;;;5013261;28;20091;-88
2023/11/17 08:09:54;;;;;;;0.10;0.10;;;;;;;;;;4999601;28;20042;-89
2023/11/17 08:12:20;;;;;;;0.00;0.00;;;;;;;;;;5010000;28;20046;-89
2023/11/17 08:14:47;;;;;;;0.65;0.30;;;;;;;;;;5001608;28;20165;-89
2023/11/17 08:17:13;;;;;;;0.08;0.08;;;;;;;;;;5001883;28;20046;-88
2023/11/17 08:19:40;;;;;;;0.43;0.00;;;;;;;;;;4999512;28;20041;-88
2023/11/17 08:22:06;;;;;;;0.00;0.00;;;;;;;;;;5014657;28;20494;-89
2023/11/17 08:24:32;;;;;;;0.98;0.52;;;;;;;;;;5001429;28;20619;-89
2023/11/17 08:26:58;;;;;;;1.38;0.40;;;;;;;;;;5013958;28;20416;-88
2023/11/17 08:29:25;;;;;;;0.00;0.00;;;;;;;;;;5013734;28;20048;-88
2023/11/17 08:31:51;;;;;;;0.15;0.00;;;;;;;;;;5010940;28;20048;-90
2023/11/17 08:34:18;;;;;;;0.20;0.10;;;;;;;;;;5008809;28;20078;-90
2023/11/17 08:36:44;;;;;;;1.15;0.17;;;;;;;;;;5006067;28;20042;-89
2023/11/17 08:39:24;;;;;;;0.10;0.10;;;;;;;;;;5021916;28;20974;-89
2023/11/17 08:41:51;;;;;;;0.13;0.10;;;;;;;;;;5009107;28;20133;-89
2023/11/17 08:44:17;;;;;;;0.00;0.00;;;;;;;;;;4993067;28;20516;-89
2023/11/17 08:46:44;;;;;;;0.32;0.20;;;;;;;;;;5004364;28;20050;-89
2023/11/17 08:49:11;;;;;;;0.43;0.10;;;;;;;;;;4999004;28;20038;-88
2023/11/17 08:51:38;;;;;;;4.88;0.43;;;;;;;;;;5019309;28;20079;-89
2023/11/17 08:54:04;;;;;;;0.00;0.00;;;;;;;;;;5012949;28;20042;-90
2023/11/17 08:56:31;;;;;;;0.60;0.17;;;;;;;;;;5002628;28;20046;-89
2023/11/17 08:58:57;;;;;;;0.13;0.05;;;;;;;;;;5017731;28;20415;-89
2023/11/17 09:01:23;;;;;;;0.35;0.10;;;;;;;;;;5009032;28;20125;-89
2023/11/17 09:03:50;;;;;;;0.10;0.10;;;;;;;;;;5010540;28;20030;-88
2023/11/17 09:06:19;;;;;;;0.93;0.13;;;;;;;;;;5007858;28;20047;-89
2023/11/17 09:08:46;;;;;;;1.30;0.60;;;;;;;;;;5019356;28;20053;-90
2023/11/17 09:11:12;;;;;;;0.25;0.20;;;;;;;;;;5009548;28;20053;-89
2023/11/17 09:13:40;;;;;;;0.68;0.10;;;;;;;;;;5001948;28;20037;-89
2023/11/17 09:16:07;;;;;;;0.20;0.05;;;;;;;;;;5001440;28;20048;-90
2023/11/17 09:18:36;;;;;;;0.00;0.00;;;;;;;;;;5015973;28;20038;-90
2023/11/17 09:21:10;;;;;;;0.03;0.03;;;;;;;;;;5008649;28;20069;-90
2023/11/17 09:23:36;;;;;;;0.20;0.00;;;;;;;;;;5010504;28;20159;-89
2023/11/17 09:26:03;;;;;;;0.00;0.00;;;;;;;;;;4984986;28;20061;-89
2023/11/17 09:28:29;;;;;;;0.00;0.00;;;;;;;;;;5013599;28;20042;-89
2023/11/17 09:30:59;;;;;;;0.00;0.00;;;;;;;;;;4991578;28;20052;-89
2023/11/17 09:33:25;;;;;;;0.10;0.10;;;;;;;;;;4992388;28;20628;-89
2023/11/17 09:35:51;;;;;;;0.35;0.25;;;;;;;;;;4993378;28;20054;-89
2023/11/17 09:38:17;;;;;;;0.38;0.35;;;;;;;;;;4995545;28;20084;-88
2023/11/17 09:40:43;;;;;;;0.25;0.10;;;;;;;;;;4975393;28;20137;-90
2023/11/17 09:43:18;;;;;;;0.10;0.05;;;;;;;;;;4977820;28;20026;-88
2023/11/17 09:45:45;;;;;;;0.03;0.00;;;;;;;;;;4973051;28;20081;-88
2023/11/17 09:48:12;;;;;;;0.00;0.00;;;;;;;;;;4951095;28;20043;-88
2023/11/17 09:50:40;;;;;;;1.90;0.22;;;;;;;;;;4944745;29;20053;-89
2023/11/17 09:53:43;;;;;;;;;;;;;;;;;;;;;
2023/11/17 09:56:12;;;;;;;0.20;0.10;;;;;;;;;;4948681;28;20053;-88
2023/11/17 09:58:56;;;;;;;;;;;;;;;;;;;;;
2023/11/17 10:01:43;;;;;;;0.08;0.05;;;;;;;;;;4974538;28;20478;-88
2023/11/17 10:04:14;;;;;;;0.13;0.10;;;;;;;;;;4953385;28;20039;-88
2023/11/17 10:06:43;;;;;;;0.35;0.03;;;;;;;;;;4970058;28;20049;-89
2023/11/17 10:09:11;;;;;;;0.70;0.25;;;;;;;;;;4958135;28;20046;-90
2023/11/17 10:11:42;;;;;;;0.10;0.05;;;;;;;;;;4957751;28;20405;-90
2023/11/17 10:14:12;;;;;;;0.80;0.20;;;;;;;;;;4965667;28;20460;-89
2023/11/17 10:16:39;;;;;;;0.30;0.10;;;;;;;;;;4993623;28;20080;-89
2023/11/17 10:19:07;;;;;;;4.13;0.17;;;;;;;;;;4988626;28;20030;-89
2023/11/17 10:21:34;;;;;;;4.88;0.10;;;;;;;;;;4982284;28;20049;-89
2023/11/17 10:24:07;;;;;;;0.15;0.10;;;;;;;;;;4986556;28;20050;-89
2023/11/17 10:26:43;;;;;;;0.00;0.00;;;;;;;;;;5020459;28;20500;-89
2023/11/17 10:29:28;;;;;;;;;;;;;;;;;;;;;
2023/11/17 10:32:02;;;;;;;0.00;0.00;;;;;;;;;;4998508;28;20050;-89
2023/11/17 10:34:31;;;;;;;0.15;0.00;;;;;;;;;;5001189;28;20049;-90
2023/11/17 10:37:04;;;;;;;1.45;0.10;;;;;;;;;;5007134;28;20068;-89
2023/11/17 10:39:31;;;;;;;0.10;0.10;;;;;;;;;;5001355;28;20051;-89
2023/11/17 10:42:18;;;;;;;0.00;0.00;;;;;;;;;;5008746;28;20038;-89
2023/11/17 10:44:44;;;;;;;0.00;0.00;;;;;;;;;;5021079;28;20046;-89
2023/11/17 10:47:17;;;;;;;0.25;0.10;;;;;;;;;;4995324;28;20037;-89
2023/11/17 10:49:49;;;;;;;;;;;;;;;;;;4992353;28;20050;-88
2023/11/17 10:52:26;;;;;;;0.50;0.20;;;;;;;;;;5010270;28;20349;-89
2023/11/17 10:54:53;;;;;;;1.08;0.30;;;;;;;;;;5014615;28;20405;-88
2023/11/17 10:57:20;;;;;;;0.20;0.03;;;;;;;;;;5006031;28;20050;-89
2023/11/17 10:59:47;;;;;;;0.82;0.50;;;;;;;;;;5001909;28;20041;-88
2023/11/17 11:02:15;;;;;;;0.00;0.00;;;;;;;;;;5000496;28;20042;-89
2023/11/17 11:04:41;;;;;;;0.00;0.00;;;;;;;;;;5003531;28;20092;-88
2023/11/17 11:07:10;;;;;;;0.00;0.00;;;;;;;;;;5005188;28;20151;-88
2023/11/17 11:09:41;;;;;;;0.00;0.00;;;;;;;;;;5008609;28;20049;-88
2023/11/17 11:12:08;;;;;;;0.10;0.10;;;;;;;;;;4989117;28;20048;-89
2023/11/17 11:14:36;;;;;;;0.55;0.30;;;;;;;;;;5006922;28;20080;-89
2023/11/17 11:17:02;;;;;;;0.45;0.28;;;;;;;;;;4989995;28;20486;-89
2023/11/17 11:19:32;;;;;;;0.47;0.17;;;;;;;;;;5005972;28;20057;-89
2023/11/17 11:22:08;;;;;;;0.00;0.00;;;;;;;;;;5001610;28;20140;-88
2023/11/17 11:24:35;;;;;;;0.00;0.00;;;;;;;;;;5016962;28;20061;-88
2023/11/17 11:27:03;;;;;;;0.80;0.00;;;;;;;;;;5022320;28;20546;-89
2023/11/17 11:29:30;;;;;;;0.00;0.00;;;;;;;;;;4999722;28;20061;-89
2023/11/17 11:32:08;;;;;;;0.32;0.15;;;;;;;;;;5022243;28;20041;-90
2023/11/17 11:34:38;;;;;;;0.00;0.00;;;;;;;;;;5005696;28;20054;-89
2023/11/17 11:37:05;;;;;;;0.00;0.00;;;;;;;;;;5008307;28;20072;-90
2023/11/17 11:39:34;;;;;;;0.68;0.30;;;;;;;;;;5009613;28;20038;-92
2023/11/17 11:42:00;;;;;;;0.30;0.10;;;;;;;;;;5011960;28;20060;-90
2023/11/17 11:44:26;;;;;;;0.35;0.17;;;;;;;;;;5006199;28;20038;-90
2023/11/17 11:46:59;;;;;;;0.00;0.00;;;;;;;;;;4998922;28;20035;-90
2023/11/17 11:49:25;;;;;;;0.05;0.00;;;;;;;;;;5003509;28;20378;-89
2023/11/17 11:51:54;;;;;;;0.10;0.00;;;;;;;;;;5011566;28;20038;-89
2023/11/17 11:54:24;;;;;;;0.40;0.08;;;;;;;;;;5012562;28;20144;-89
2023/11/17 11:56:50;;;;;;;0.93;0.22;;;;;;;;;;5012896;28;20049;-89
2023/11/17 11:59:16;;;;;;;0.00;0.00;;;;;;;;;;5014259;28;20034;-90
2023/11/17 12:01:43;;;;;;;0.32;0.20;;;;;;;;;;5018701;28;20478;-89
2023/11/17 12:04:10;;;;;;;0.00;0.00;;;;;;;;;;5012098;28;20643;-89
2023/11/17 12:06:37;;;;;;;0.00;0.00;;;;;;;;;;5002656;28;20030;-90
2023/11/17 12:09:20;;;;;;;0.52;0.40;;;;;;;;;;5009520;28;20092;-88
2023/11/17 12:11:46;;;;;;;0.47;0.10;;;;;;;;;;5017853;28;20042;-89
2023/11/17 12:14:13;;;;;;;0.00;0.00;;;;;;;;;;4996422;28;20038;-89
2023/11/17 12:16:41;;;;;;;0.10;0.10;;;;;;;;;;5007636;28;20052;-91
2023/11/17 12:19:07;;;;;;;;;;;;;;;;;;5008099;28;20038;-89
2023/11/17 12:21:38;;;;;;;1.67;0.10;;;;;;;;;;5009618;28;19943;-90
2023/11/17 12:24:07;;;;;;;0.13;0.10;;;;;;;;;;5003382;28;20755;-87
2023/11/17 12:26:37;;;;;;;0.00;0.00;;;;;;;;;;5010445;28;20030;-89
2023/11/17 12:29:04;;;;;;;0.45;0.20;;;;;;;;;;5006679;28;20041;-89
2023/11/17 12:31:31;;;;;;;0.08;0.08;;;;;;;;;;5011888;28;20045;-89
2023/11/17 12:34:00;;;;;;;0.08;0.05;;;;;;;;;;5009180;28;20046;-89
2023/11/17 12:36:26;;;;;;;0.03;0.00;;;;;;;;;;5009006;28;20568;-90
2023/11/17 12:38:54;;;;;;;0.22;0.00;;;;;;;;;;5011621;28;20636;-89
2023/11/17 12:41:25;;;;;;;0.00;0.00;;;;;;;;;;5001131;28;20176;-89
2023/11/17 12:43:51;;;;;;;0.35;0.03;;;;;;;;;;5008147;28;20610;-89
2023/11/17 12:46:21;;;;;;;0.52;0.30;;;;;;;;;;5015278;28;20030;-89
2023/11/17 12:48:47;;;;;;;0.00;0.00;;;;;;;;;;5002278;28;20046;-89
2023/11/17 12:51:31;;;;;;;0.75;0.15;;;;;;;;;;5004402;28;20034;-89
2023/11/17 12:54:05;;;;;;;0.15;0.05;;;;;;;;;;5015438;28;20045;-92
2023/11/17 12:56:31;;;;;;;0.10;0.10;;;;;;;;;;5012293;28;20046;-91
2023/11/17 12:58:58;;;;;;;0.20;0.00;;;;;;;;;;5008662;28;20062;-90
2023/11/17 13:01:26;;;;;;;0.03;0.00;;;;;;;;;;5017431;28;20054;-90
2023/11/17 13:04:02;;;;;;;0.03;0.03;;;;;;;;;;5011829;28;20481;-90
2023/11/17 13:06:32;;;;;;;0.00;0.00;;;;;;;;;;5005052;28;20045;-90
2023/11/17 13:09:09;;;;;;;0.22;0.20;;;;;;;;;;5005993;28;20038;-89
2023/11/17 13:11:39;;;;;;;1.50;0.35;;;;;;;;;;5008849;28;20042;-90
2023/11/17 13:14:08;;;;;;;0.00;0.00;;;;;;;;;;5008498;28;20034;-91
2023/11/17 13:16:34;;;;;;;2.35;0.30;;;;;;;;;;5024392;28;20716;-90
2023/11/17 13:19:01;;;;;;;1.45;0.10;;;;;;;;;;5004562;28;20437;-90
2023/11/17 13:21:30;;;;;;;1.27;0.63;;;;;;;;;;5013256;28;20132;-91
2023/11/17 13:23:56;;;;;;;0.05;0.00;;;;;;;;;;5001341;28;20061;-90
2023/11/17 13:26:29;;;;;;;0.25;0.10;;;;;;;;;;5012160;28;20038;-91
2023/11/17 13:28:56;;;;;;;0.13;0.13;;;;;;;;;;5005607;28;20042;-90
2023/11/17 13:31:23;;;;;;;0.00;0.00;;;;;;;;;;5002461;28;20077;-92
2023/11/17 13:33:53;;;;;;;0.10;0.10;;;;;;;;;;5002764;28;20049;-89
2023/11/17 13:36:24;;;;;;;0.00;0.00;;;;;;;;;;5011246;28;20041;-90
2023/11/17 13:38:57;;;;;;;0.00;0.00;;;;;;;;;;5001209;28;20165;-91
2023/11/17 13:41:28;;;;;;;0.05;0.00;;;;;;;;;;5009555;28;20042;-89
2023/11/17 13:43:58;;;;;;;0.00;0.00;;;;;;;;;;5009677;28;20091;-90
2023/11/17 13:46:36;;;;;;;0.10;0.05;;;;;;;;;;5010724;28;20038;-90
2023/11/17 13:49:23;;;;;;;0.40;0.20;;;;;;;;;;5019323;28;20049;-88
2023/11/17 13:52:04;;;;;;;0.00;0.00;;;;;;;;;;5008656;28;20037;-90
2023/11/17 13:54:33;;;;;;;0.03;0.03;;;;;;;;;;5006514;28;20053;-89
2023/11/17 13:57:08;;;;;;;0.00;0.00;;;;;;;;;;5009865;28;20042;-88
2023/11/17 13:59:34;;;;;;;0.10;0.10;;;;;;;;;;5003770;28;20065;-90
2023/11/17 14:02:02;;;;;;;0.00;0.00;;;;;;;;;;5015011;28;20066;-89
2023/11/17 14:04:32;;;;;;;0.00;0.00;;;;;;;;;;5009067;28;20440;-90
2023/11/17 14:07:14;;;;;;;0.00;0.00;;;;;;;;;;5001524;28;20423;-90
2023/11/17 14:09:45;;;;;;;0.15;0.13;;;;;;;;;;5014742;28;20088;-90
2023/11/17 14:12:11;;;;;;;;;;;;;;;;;;4994809;28;20080;-91
2023/11/17 14:14:42;;;;;;;3.22;0.10;;;;;;;;;;5026036;28;20000;-90
2023/11/17 14:17:10;;;;;;;1.35;0.10;;;;;;;;;;5020681;28;20050;-89
2023/11/17 14:19:45;;;;;;;0.00;0.00;;;;;;;;;;5002616;28;20577;-89
2023/11/17 14:22:14;;;;;;;0.08;0.00;;;;;;;;;;5011207;28;20042;-89
2023/11/17 14:24:44;;;;;;;0.90;0.10;;;;;;;;;;5006264;28;20420;-90
2023/11/17 14:27:11;;;;;;;0.38;0.20;;;;;;;;;;5009399;28;20088;-90
2023/11/17 14:29:42;;;;;;;0.00;0.00;;;;;;;;;;5003181;28;20048;-89
2023/11/17 14:32:15;;;;;;;0.65;0.08;;;;;;;;;;5000023;28;20044;-90
2023/11/17 14:34:43;;;;;;;0.10;0.10;;;;;;;;;;4994150;28;20042;-90
2023/11/17 14:37:09;;;;;;;0.00;0.00;;;;;;;;;;5005848;28;20050;-89
2023/11/17 14:39:37;;;;;;;0.30;0.10;;;;;;;;;;5004128;28;20081;-89
2023/11/17 14:45:53;;;;;;;0.22;0.20;;;;;;;;;;4970135;28;20072;-89
2023/11/17 14:48:19;;;;;;;0.95;0.50;;;;;;;;;;4977490;28;20052;-90
2023/11/17 14:50:54;;;;;;;0.35;0.20;;;;;;;;;;4996218;28;20034;-89
2023/11/17 14:53:30;;;;;;;0.32;0.20;;;;;;;;;;5003471;28;20046;-89
2023/11/17 14:55:56;;;;;;;0.40;0.20;;;;;;;;;;4996587;28;20053;-88
2023/11/17 14:58:22;;;;;;;10.02;0.20;;;;;;;;;;5004165;28;20069;-89
2023/11/17 15:00:58;;;;;;;0.15;0.13;;;;;;;;;;4999111;28;20049;-89
2023/11/17 15:03:30;;;;;;;0.10;0.10;;;;;;;;;;5002408;28;20038;-89
2023/11/17 15:06:27;;;;;;;0.10;0.08;;;;;;;;;;5007823;28;20038;-89
2023/11/17 15:09:08;;;;;;;0.52;0.40;;;;;;;;;;4986282;28;20440;-89
2023/11/17 15:14:43;;;;;;;;;;;;;;;;;;;;;
2023/11/17 15:17:26;;;;;;;1.20;0.55;;;;;;;;;;5012075;28;20046;-90
2023/11/17 15:20:07;;;;;;;;;;;;;;;;;;;;;
2023/11/17 15:22:43;;;;;;;0.20;0.13;;;;;;;;;;5029735;28;20048;-89
2023/11/17 15:25:35;;;;;;;11.70;0.82;;;;;;;;;;5025616;28;20136;-91
2023/11/17 15:28:07;;;;;;;0.25;0.15;;;;;;;;;;5012565;28;20045;-90
2023/11/17 15:30:54;;;;;;;0.10;0.10;;;;;;;;;;5006120;28;20558;-89
2023/11/17 15:36:45;;;;;;;1.02;0.38;;;;;;;;;;4961534;28;20459;-90
2023/11/17 15:39:15;;;;;;;0.08;0.00;;;;;;;;;;4974507;28;20636;-90
2023/11/17 15:41:42;;;;;;;0.25;0.00;;;;;;;;;;5006381;28;20045;-89
2023/11/17 15:44:10;;;;;;;0.17;0.10;;;;;;;;;;5004291;28;20033;-89
2023/11/17 15:46:41;;;;;;;0.22;0.10;;;;;;;;;;5007784;28;20077;-89
2023/11/17 15:49:11;;;;;;;0.82;0.45;;;;;;;;;;5006428;28;20571;-90
2023/11/17 15:51:43;;;;;;;0.00;0.00;;;;;;;;;;5007361;28;20043;-87
2023/11/17 15:54:09;;;;;;;1.92;0.32;;;;;;;;;;5008810;28;20049;-90
2023/11/17 15:56:38;;;;;;;0.63;0.30;;;;;;;;;;5007375;28;20052;-90
2023/11/17 15:59:22;;;;;;;1.55;0.30;;;;;;;;;;5004765;28;20105;-91
2023/11/17 16:01:51;;;;;;;3.03;0.70;;;;;;;;;;5008015;28;20060;-90
2023/11/17 16:04:17;;;;;;;2.80;1.38;;;;;;;;;;5008990;28;20037;-90
2023/11/17 16:06:46;;;;;;;1.15;0.43;;;;;;;;;;4999311;28;20485;-90
2023/11/17 16:09:14;;;;;;;2.85;1.02;;;;;;;;;;5006497;28;20044;-90
2023/11/17 16:11:43;;;;;;;1.80;0.93;;;;;;;;;;5005243;28;20034;-90
2023/11/17 16:14:12;;;;;;;4.78;2.33;;;;;;;;;;5006098;28;20049;-90
2023/11/17 16:17:02;;;;;;;3.00;1.42;;;;;;;;;;5016160;28;20042;-90
2023/11/17 16:19:31;;;;;;;6.18;2.90;;;;;;;;;;5011068;28;20493;-90
2023/11/17 16:22:03;;;;;;;2.08;1.20;;;;;;;;;;5021000;28;20056;-89
2023/11/17 16:24:36;;;;;;;11.18;2.92;;;;;;;;;;5014802;28;20087;-88
2023/11/17 16:27:05;;;;;;;1.20;0.98;;;;;;;;;;5009781;28;20042;-89
2023/11/17 16:29:34;;;;;;;2.90;0.30;;;;;;;;;;5013781;28;20041;-90
2023/11/17 16:32:09;;;;;;;0.40;0.30;;;;;;;;;;5012797;28;20037;-89
2023/11/17 16:34:38;;;;;;;0.93;0.28;;;;;;;;;;5023602;28;20049;-90
2023/11/17 16:37:05;;;;;;;4.53;0.45;;;;;;;;;;5019147;28;20081;-89
2023/11/17 16:39:31;;;;;;;0.20;0.08;;;;;;;;;;5009068;28;20069;-90
2023/11/17 16:42:00;;;;;;;4.03;0.30;;;;;;;;;;5012977;28;20037;-89
2023/11/17 16:44:31;;;;;;;0.90;0.20;;;;;;;;;;5032746;28;20126;-88
2023/11/17 16:46:58;;;;;;;0.40;0.20;;;;;;;;;;5014177;28;20121;-89
2023/11/17 16:49:27;;;;;;;2.00;0.20;;;;;;;;;;5012770;28;20049;-89
2023/11/17 16:51:53;;;;;;;13.35;0.77;;;;;;;;;;5029787;28;20033;-87
2023/11/17 16:54:21;;;;;;;0.03;0.00;;;;;;;;;;5043168;28;20041;-89
2023/11/17 16:56:48;;;;;;;0.82;0.40;;;;;;;;;;5016487;28;20054;-88
2023/11/17 16:59:15;;;;;;;0.60;0.32;;;;;;;;;;5016313;28;20037;-87
2023/11/17 17:01:41;;;;;;;1.17;1.08;;;;;;;;;;5010005;28;20095;-88
2023/11/17 17:07:12;;;;;;;0.57;0.30;;;;;;;;;;5266359;23;20092;-85
2023/11/17 17:10:06;;;;;;;2.45;1.75;;;;;;;;;;5035340;28;20473;-87
2023/11/17 17:12:53;;;;;;;;;;;;;;;;;;;;;
2023/11/17 18:58:20;;;;;;;3.80;1.27;;;;;;;;;;6147564;22;20071;-88
2023/11/17 19:52:51;;;;;;;3.10;2.03;;;;;;;;;;5042089;28;20077;-84
2023/11/17 19:55:22;;;;;;;9.35;3.35;;;;;;;;;;5029432;28;20045;-91
2023/11/17 19:58:35;;;;;;;6.97;3.13;;;;;;;;;;5024837;23;20057;-86
2023/11/17 20:01:36;;;;;;;4.47;1.67;;;;;;;;;;5030134;28;20115;-92
2023/11/17 20:16:59;;;;;;;8.20;2.63;;;;;;;;;;5016232;28;20060;-88
2023/11/17 20:19:26;;;;;;;10.60;3.33;;;;;;;;;;5013777;28;20039;-87
2023/11/17 20:24:57;;;;;;;4.78;1.67;;;;;;;;;;4967691;28;20508;-87
